Time;durP1;ratioP1;P1;durP2;ratioP2;P2;SDS_P1;SDS_P2;PMS_P1;PMS_P2;Temp;Humidity;BMP_temperature;BMP_pressure;BME280_temperature;BME280_humidity;BME280_pressure;Samples;Min_cycle;Max_cycle;Signal;HPM_P1;HPM_P2
2024/03/10 00:00:20;;;;;;;;;;;;;;;12.50;45.89;97862.50;4131914;28;19964;-70
2024/03/10 00:02:24;;;;;;;;;;;;;;;12.41;46.22;97856.56;4145982;28;19919;-70
2024/03/10 00:04:24;;;;;;;;;;;;;;;12.38;46.48;97856.97;4131634;28;20045;-71
2024/03/10 00:06:25;;;;;;;;;;;;;;;12.28;46.80;97860.06;4131697;28;20358;-71
2024/03/10 00:08:25;;;;;;;;;;;;;;;12.30;46.68;97859.88;4131534;28;19914;-70
2024/03/10 00:10:26;;;;;;;;;;;;;;;12.28;46.79;97859.25;4131984;28;19910;-70
2024/03/10 00:12:26;;;;;;;;;;;;;;;12.33;46.54;97868.31;4132471;28;19910;-70
2024/03/10 00:14:26;;;;;;;;;;;;;;;12.33;46.70;97862.97;4132149;28;19910;-70
2024/03/10 00:16:27;;;;;;;;;;;;;;;12.39;46.43;97857.78;4132417;28;19910;-72
2024/03/10 00:18:27;;;;;;;;;;;;;;;12.49;46.42;97860.84;4132121;28;19916;-70
2024/03/10 00:20:27;;;;;;;;;;;;;;;12.54;46.17;97861.06;4132742;28;19988;-70
2024/03/10 00:22:28;;;;;;;;;;;;;;;12.67;45.98;97862.03;4131987;28;20362;-70
2024/03/10 00:24:28;;;;;;;;;;;;;;;12.61;45.92;97853.00;4132709;28;20266;-71
2024/03/10 00:26:30;;;;;;;;;;;;;;;12.59;46.03;97855.06;4147433;28;19913;-70
2024/03/10 00:28:31;;;;;;;;;;;;;;;12.55;45.97;97865.38;4132357;28;19972;-70
2024/03/10 00:30:33;;;;;;;;;;;;;;;12.55;46.15;97857.34;4132212;28;19917;-70
2024/03/10 00:32:33;;;;;;;;;;;;;;;12.62;46.10;97860.81;4148394;28;19917;-70
2024/03/10 00:34:37;;;;;;;;;;;;;;;12.77;45.85;97867.75;4131182;28;19914;-70
2024/03/10 00:36:37;;;;;;;;;;;;;;;12.56;46.17;97861.66;4132791;28;19918;-70
2024/03/10 00:38:38;;;;;;;;;;;;;;;12.66;46.27;97861.22;4130948;28;20440;-70
2024/03/10 00:40:38;;;;;;;;;;;;;;;12.69;46.01;97850.06;4130792;28;19910;-72
2024/03/10 00:42:39;;;;;;;;;;;;;;;12.70;46.41;97856.25;4130680;28;19916;-71
2024/03/10 00:44:39;;;;;;;;;;;;;;;12.36;47.14;97855.53;4130280;28;19910;-70
2024/03/10 00:46:39;;;;;;;;;;;;;;;12.32;47.35;97860.50;4145512;28;20374;-70
2024/03/10 00:48:40;;;;;;;;;;;;;;;12.56;46.88;97855.47;4130666;28;19920;-70
2024/03/10 00:50:40;;;;;;;;;;;;;;;12.51;47.16;97858.78;4130596;28;19917;-70
2024/03/10 00:52:41;;;;;;;;;;;;;;;12.51;46.90;97850.75;4130722;28;19916;-70
2024/03/10 00:54:41;;;;;;;;;;;;;;;12.38;47.31;97853.44;4145148;28;19932;-70
2024/03/10 00:56:41;;;;;;;;;;;;;;;12.47;47.24;97852.19;4129490;28;19957;-70
2024/03/10 00:58:42;;;;;;;;;;;;;;;12.27;47.48;97853.09;4131354;28;19910;-71
2024/03/10 01:00:42;;;;;;;;;;;;;;;12.29;47.65;97853.69;4134962;28;19909;-70
2024/03/10 01:02:47;;;;;;;;;;;;;;;12.44;47.30;97852.63;4145124;28;20126;-70
2024/03/10 01:04:48;;;;;;;;;;;;;;;12.43;47.50;97850.97;4162734;28;19952;-72
2024/03/10 01:06:49;;;;;;;;;;;;;;;12.45;47.56;97857.75;4149204;28;19932;-71
2024/03/10 01:08:49;;;;;;;;;;;;;;;12.42;47.60;97858.19;4149125;28;19917;-72
2024/03/10 01:13:31;;;;;;;;;;;;;;;12.35;48.16;97856.56;4149181;28;19920;-71
2024/03/10 01:15:31;;;;;;;;;;;;;;;12.20;48.33;97854.94;4149352;28;19933;-71
2024/03/10 01:17:32;;;;;;;;;;;;;;;12.14;48.76;97855.78;4138205;28;19913;-70
2024/03/10 01:19:33;;;;;;;;;;;;;;;12.06;48.88;97856.00;4145701;28;20289;-70
2024/03/10 01:21:34;;;;;;;;;;;;;;;12.00;49.35;97854.97;4130452;28;20547;-70
2024/03/10 01:23:34;;;;;;;;;;;;;;;11.95;49.62;97852.06;4130103;28;19964;-71
2024/03/10 01:25:34;;;;;;;;;;;;;;;11.94;49.53;97859.25;4130303;28;19913;-70
2024/03/10 01:27:36;;;;;;;;;;;;;;;11.97;49.35;97850.00;4129834;28;20381;-70
2024/03/10 01:29:36;;;;;;;;;;;;;;;11.90;49.40;97851.84;4130436;28;19914;-72
2024/03/10 01:31:36;;;;;;;;;;;;;;;11.67;50.29;97851.25;4129741;28;20362;-70
2024/03/10 01:33:37;;;;;;;;;;;;;;;11.81;50.08;97851.22;4129675;28;19917;-71
2024/03/10 01:35:41;;;;;;;;;;;;;;;11.83;50.12;97846.50;4133171;28;19955;-71
2024/03/10 01:37:42;;;;;;;;;;;;;;;11.67;50.45;97837.03;4133211;28;20322;-71
2024/03/10 01:39:42;;;;;;;;;;;;;;;11.52;50.78;97839.94;4132969;28;19936;-71
2024/03/10 01:41:42;;;;;;;;;;;;;;;11.37;51.25;97830.22;4133136;28;19913;-71
2024/03/10 01:43:47;;;;;;;;;;;;;;;11.40;51.46;97823.63;4133040;28;19913;-71
2024/03/10 01:45:51;;;;;;;;;;;;;;;11.26;51.64;97828.16;4132661;28;20267;-70
2024/03/10 01:47:52;;;;;;;;;;;;;;;11.13;51.86;97828.94;4132455;28;19913;-70
2024/03/10 01:49:52;;;;;;;;;;;;;;;11.35;51.47;97818.09;4133448;28;20409;-70
2024/03/10 01:51:55;;;;;;;;;;;;;;;11.26;51.30;97806.75;4133208;28;19996;-71
2024/03/10 01:53:56;;;;;;;;;;;;;;;11.14;51.50;97808.41;4147760;28;20421;-71
2024/03/10 01:55:58;;;;;;;;;;;;;;;11.31;51.24;97812.31;4147852;28;19916;-70
2024/03/10 01:57:58;;;;;;;;;;;;;;;11.31;51.37;97806.97;4131298;28;19913;-70
2024/03/10 02:00:00;;;;;;;;;;;;;;;11.14;51.53;97819.09;4133059;28;19917;-70
2024/03/10 02:02:00;;;;;;;;;;;;;;;11.04;51.86;97803.44;4132614;28;19913;-70
2024/03/10 02:04:01;;;;;;;;;;;;;;;11.01;52.14;97801.16;4132533;28;19920;-70
2024/03/10 02:06:01;;;;;;;;;;;;;;;10.87;52.53;97803.81;4132788;28;19917;-72
2024/03/10 02:08:02;;;;;;;;;;;;;;;10.87;52.52;97800.28;4132444;28;20394;-71
2024/03/10 02:10:03;;;;;;;;;;;;;;;10.92;52.43;97801.34;4132600;28;20458;-70
2024/03/10 02:12:06;;;;;;;;;;;;;;;11.02;52.13;97803.63;4132686;28;20553;-71
2024/03/10 02:14:07;;;;;;;;;;;;;;;11.01;51.94;97799.31;4132319;28;19910;-70
2024/03/10 02:16:10;;;;;;;;;;;;;;;10.75;52.50;97794.72;4132137;28;20370;-71
2024/03/10 02:18:12;;;;;;;;;;;;;;;10.92;52.32;97797.84;4132349;28;19910;-70
2024/03/10 02:20:20;;;;;;;;;;;;;;;11.15;51.79;97799.31;4132518;28;19996;-70
2024/03/10 02:22:20;;;;;;;;;;;;;;;11.24;51.34;97800.81;4132325;28;19921;-71
2024/03/10 02:24:33;;;;;;;;;;;;;;;11.11;51.65;97798.91;4146937;28;20549;-70
2024/03/10 02:26:36;;;;;;;;;;;;;;;11.01;51.81;97799.31;4132222;28;19996;-70
2024/03/10 02:28:56;;;;;;;;;;;;;;;11.06;51.96;97799.53;4147007;28;19913;-70
2024/03/10 02:30:57;;;;;;;;;;;;;;;11.15;51.74;97797.50;4131829;28;19909;-71
2024/03/10 02:47:14;;;;;;;;;;;;;;;10.69;53.47;97779.50;4131795;28;19991;-70
2024/03/10 02:49:15;;;;;;;;;;;;;;;10.85;52.68;97776.44;4133480;28;20032;-70
2024/03/10 02:51:15;;;;;;;;;;;;;;;10.77;53.02;97766.75;4131491;28;19941;-70
2024/03/10 02:53:15;;;;;;;;;;;;;;;10.69;53.10;97766.94;4146562;28;19953;-70
2024/03/10 02:55:16;;;;;;;;;;;;;;;10.76;52.93;97759.78;4131602;28;20004;-70
2024/03/10 02:57:16;;;;;;;;;;;;;;;10.83;52.50;97750.97;4131452;28;20008;-70
2024/03/10 02:59:17;;;;;;;;;;;;;;;10.76;52.45;97746.44;4132051;28;20472;-70
2024/03/10 03:01:18;;;;;;;;;;;;;;;10.74;52.36;97744.97;4131758;28;19910;-70
2024/03/10 03:03:18;;;;;;;;;;;;;;;10.71;52.60;97750.72;4131346;28;19960;-70
2024/03/10 03:05:19;;;;;;;;;;;;;;;10.72;52.42;97745.19;4131344;28;19910;-71
2024/03/10 03:07:19;;;;;;;;;;;;;;;10.83;52.25;97734.91;4131416;28;19910;-70
2024/03/10 03:09:23;;;;;;;;;;;;;;;10.86;51.92;97729.19;4131650;28;19922;-70
2024/03/10 03:11:23;;;;;;;;;;;;;;;10.65;51.94;97733.66;4131508;28;19910;-70
2024/03/10 03:13:24;;;;;;;;;;;;;;;10.76;51.87;97735.75;4131791;28;19950;-70
2024/03/10 03:15:24;;;;;;;;;;;;;;;10.82;51.42;97733.28;4130774;28;19997;-70
2024/03/10 03:17:24;;;;;;;;;;;;;;;10.80;51.39;97735.31;4131525;28;19910;-70
2024/03/10 03:19:26;;;;;;;;;;;;;;;10.97;51.03;97731.22;4146266;28;20047;-70
2024/03/10 03:21:26;;;;;;;;;;;;;;;10.93;50.97;97730.00;4131148;28;20073;-71
2024/03/10 03:23:26;;;;;;;;;;;;;;;11.01;50.91;97731.63;4146187;28;20035;-70
2024/03/10 03:25:27;;;;;;;;;;;;;;;10.93;51.43;97730.00;4129641;28;19910;-70
2024/03/10 03:27:27;;;;;;;;;;;;;;;10.92;51.12;97729.16;4145830;28;19909;-70
2024/03/10 03:29:27;;;;;;;;;;;;;;;11.01;50.82;97727.13;4131232;28;20429;-71
2024/03/10 03:31:28;;;;;;;;;;;;;;;10.91;51.13;97732.88;4123267;28;20531;-72
2024/03/10 03:33:28;;;;;;;;;;;;;;;11.02;50.61;97726.09;4122321;28;19952;-70
2024/03/10 03:35:28;;;;;;;;;;;;;;;11.16;50.51;97718.06;4130973;28;19971;-73
2024/03/10 03:37:30;;;;;;;;;;;;;;;10.98;50.68;97716.84;4130445;28;19924;-71
2024/03/10 03:39:32;;;;;;;;;;;;;;;10.87;51.13;97720.09;4131357;28;19910;-71
2024/03/10 03:41:33;;;;;;;;;;;;;;;10.85;50.89;97711.50;4131411;28;20004;-71
2024/03/10 03:43:34;;;;;;;;;;;;;;;10.73;51.57;97712.09;4130879;28;20285;-72
2024/03/10 03:45:34;;;;;;;;;;;;;;;10.93;51.09;97705.94;4131282;28;19914;-71
2024/03/10 03:47:34;;;;;;;;;;;;;;;10.72;51.37;97697.06;4131369;28;19913;-70
2024/03/10 03:49:35;;;;;;;;;;;;;;;10.73;51.10;97693.38;4131463;28;19957;-71
2024/03/10 03:51:36;;;;;;;;;;;;;;;10.76;51.14;97693.00;4130887;28;19952;-70
2024/03/10 03:53:37;;;;;;;;;;;;;;;10.67;51.34;97693.38;4130822;28;20362;-71
2024/03/10 03:55:37;;;;;;;;;;;;;;;10.60;51.41;97694.19;4131184;28;20320;-71
2024/03/10 03:57:37;;;;;;;;;;;;;;;10.60;51.54;97696.00;4129641;28;19956;-70
2024/03/10 03:59:39;;;;;;;;;;;;;;;10.60;51.25;97698.69;4145847;28;19916;-71
2024/03/10 04:01:39;;;;;;;;;;;;;;;10.70;51.22;97699.13;4130825;28;19909;-71
2024/03/10 04:03:40;;;;;;;;;;;;;;;10.85;50.90;97696.28;4130243;28;19968;-71
2024/03/10 04:05:40;;;;;;;;;;;;;;;10.68;51.37;97698.50;4130755;28;19910;-71
2024/03/10 04:07:41;;;;;;;;;;;;;;;10.60;51.63;97693.34;4130371;28;20361;-71
2024/03/10 04:09:42;;;;;;;;;;;;;;;10.58;51.71;97684.72;4130750;28;19960;-71
2024/03/10 04:11:42;;;;;;;;;;;;;;;10.55;51.83;97679.78;4130471;28;19910;-70
2024/03/10 04:13:42;;;;;;;;;;;;;;;10.53;51.94;97663.94;4129936;28;19956;-71
2024/03/10 04:15:42;;;;;;;;;;;;;;;10.43;51.94;97672.34;4130879;28;20298;-70
2024/03/10 04:17:46;;;;;;;;;;;;;;;10.56;51.97;97660.88;4131491;28;19968;-72
2024/03/10 04:19:46;;;;;;;;;;;;;;;10.71;51.62;97658.00;4131179;28;19917;-70
2024/03/10 04:21:47;;;;;;;;;;;;;;;10.74;51.33;97652.28;4130929;28;20562;-70
2024/03/10 04:23:48;;;;;;;;;;;;;;;10.85;51.16;97644.69;4130477;28;19909;-71
2024/03/10 04:25:48;;;;;;;;;;;;;;;10.72;51.65;97646.31;4131170;28;19932;-71
2024/03/10 04:27:48;;;;;;;;;;;;;;;10.84;51.45;97645.69;4130159;28;19910;-70
2024/03/10 04:29:49;;;;;;;;;;;;;;;10.92;51.35;97650.84;4131058;28;19913;-71
2024/03/10 04:31:49;;;;;;;;;;;;;;;10.90;51.35;97636.84;4131073;28;19951;-71
2024/03/10 04:33:50;;;;;;;;;;;;;;;10.88;51.51;97630.88;4144713;28;19910;-71
2024/03/10 04:35:50;;;;;;;;;;;;;;;10.84;51.39;97627.81;4130506;28;19909;-71
2024/03/10 04:37:53;;;;;;;;;;;;;;;10.80;51.49;97626.59;4130403;28;19964;-70
2024/03/10 04:39:54;;;;;;;;;;;;;;;10.54;52.46;97614.84;4145317;28;20529;-71
2024/03/10 04:41:54;;;;;;;;;;;;;;;10.58;52.37;97615.28;4130392;28;19952;-71
2024/03/10 04:43:54;;;;;;;;;;;;;;;10.51;52.70;97622.44;4130646;28;19924;-70
2024/03/10 04:45:55;;;;;;;;;;;;;;;10.36;52.84;97628.75;4130743;28;19916;-71
2024/03/10 04:47:56;;;;;;;;;;;;;;;10.49;52.58;97632.50;4130336;28;19910;-71
2024/03/10 04:49:56;;;;;;;;;;;;;;;10.61;52.32;97636.22;4145714;28;19913;-71
2024/03/10 04:51:57;;;;;;;;;;;;;;;10.59;52.67;97631.09;4130206;28;20569;-70
2024/03/10 04:53:57;;;;;;;;;;;;;;;10.51;52.62;97641.13;4130117;28;20285;-71
2024/03/10 04:55:57;;;;;;;;;;;;;;;10.58;52.75;97631.31;4130227;28;19909;-69
2024/03/10 04:57:58;;;;;;;;;;;;;;;10.60;52.44;97635.41;4129797;28;19920;-70
2024/03/10 04:59:59;;;;;;;;;;;;;;;10.49;52.66;97636.00;4130522;28;19914;-71
2024/03/10 05:01:59;;;;;;;;;;;;;;;10.64;52.44;97643.84;4130820;28;19910;-70
2024/03/10 05:04:00;;;;;;;;;;;;;;;10.57;52.51;97651.03;4144733;28;20294;-70
2024/03/10 05:06:01;;;;;;;;;;;;;;;10.44;52.83;97647.28;4130487;28;19979;-69
2024/03/10 05:08:01;;;;;;;;;;;;;;;10.37;53.02;97635.78;4130728;28;19910;-70
2024/03/10 05:10:03;;;;;;;;;;;;;;;10.29;53.26;97634.09;4147801;28;19916;-70
2024/03/10 05:12:04;;;;;;;;;;;;;;;10.34;52.85;97640.69;4133312;28;19921;-70
2024/03/10 05:14:04;;;;;;;;;;;;;;;10.35;52.70;97643.13;4133172;28;19929;-72
2024/03/10 05:16:05;;;;;;;;;;;;;;;10.37;52.98;97640.25;4133584;28;20000;-71
2024/03/10 05:18:06;;;;;;;;;;;;;;;10.35;52.86;97636.97;4143905;28;20386;-70
2024/03/10 05:20:09;;;;;;;;;;;;;;;10.39;52.72;97639.06;4138831;28;19914;-69
2024/03/10 05:22:10;;;;;;;;;;;;;;;10.39;52.61;97644.41;4148676;28;19909;-70
2024/03/10 05:24:11;;;;;;;;;;;;;;;10.42;52.67;97649.34;4159484;28;19910;-72
2024/03/10 05:26:11;;;;;;;;;;;;;;;10.43;52.38;97659.00;4146942;28;19935;-72
2024/03/10 05:28:12;;;;;;;;;;;;;;;10.23;52.93;97655.41;4149969;28;19921;-70
2024/03/10 05:30:12;;;;;;;;;;;;;;;10.04;53.11;97655.16;4133285;28;19918;-70
2024/03/10 05:32:13;;;;;;;;;;;;;;;9.99;53.60;97649.59;4133031;28;19910;-71
2024/03/10 05:34:14;;;;;;;;;;;;;;;9.92;53.90;97646.09;4131982;28;20680;-70
2024/03/10 05:36:15;;;;;;;;;;;;;;;9.86;53.69;97639.72;4132366;28;19924;-70
2024/03/10 05:38:16;;;;;;;;;;;;;;;9.89;53.62;97619.81;4146856;28;19909;-70
2024/03/10 05:40:16;;;;;;;;;;;;;;;9.76;53.85;97621.38;4132716;28;19909;-70
2024/03/10 05:42:16;;;;;;;;;;;;;;;9.72;53.98;97621.97;4132587;28;20609;-70
2024/03/10 05:44:17;;;;;;;;;;;;;;;10.01;53.48;97620.88;4132498;28;19945;-70
2024/03/10 05:46:17;;;;;;;;;;;;;;;9.97;53.28;97623.09;4133223;28;20165;-71
2024/03/10 05:48:18;;;;;;;;;;;;;;;9.98;53.22;97626.59;4132877;28;19920;-71
2024/03/10 05:50:20;;;;;;;;;;;;;;;10.01;53.02;97620.88;4150809;28;19909;-72
2024/03/10 05:52:21;;;;;;;;;;;;;;;9.98;52.79;97634.63;4133013;28;19909;-70
2024/03/10 05:54:21;;;;;;;;;;;;;;;10.04;52.79;97647.16;4131930;28;19909;-71
2024/03/10 05:56:22;;;;;;;;;;;;;;;10.26;52.13;97641.69;4132483;28;19941;-71
2024/03/10 05:58:24;;;;;;;;;;;;;;;10.13;52.41;97645.13;4132863;28;20333;-71
2024/03/10 06:00:24;;;;;;;;;;;;;;;10.11;52.28;97639.16;4133672;28;19914;-70
2024/03/10 06:02:25;;;;;;;;;;;;;;;10.07;52.43;97644.09;4137801;28;19972;-70
2024/03/10 06:04:25;;;;;;;;;;;;;;;9.99;52.65;97661.09;4136703;28;19910;-71
2024/03/10 06:06:28;;;;;;;;;;;;;;;9.96;52.84;97655.34;4138553;28;19910;-71
2024/03/10 06:08:29;;;;;;;;;;;;;;;9.95;52.85;97656.34;4135861;28;19917;-69
2024/03/10 06:10:29;;;;;;;;;;;;;;;9.90;53.17;97664.16;4137017;28;19910;-71
2024/03/10 06:12:30;;;;;;;;;;;;;;;9.91;53.11;97669.28;4137517;28;19909;-72
2024/03/10 06:14:33;;;;;;;;;;;;;;;9.81;53.39;97680.34;4135863;28;19910;-70
2024/03/10 06:16:33;;;;;;;;;;;;;;;9.96;52.92;97674.84;4134776;28;19916;-71
2024/03/10 06:25:33;;;;;;;;;;;;;;;9.98;52.58;97674.66;4134840;28;20227;-72
2024/03/10 06:27:33;;;;;;;;;;;;;;;9.95;52.39;97675.03;4143807;28;19910;-71
2024/03/10 06:29:34;;;;;;;;;;;;;;;10.07;52.14;97672.63;4160601;28;19983;-70
2024/03/10 06:31:37;;;;;;;;;;;;;;;10.20;52.04;97663.84;4145357;28;20338;-72
2024/03/10 06:33:38;;;;;;;;;;;;;;;10.27;51.56;97673.50;4143960;28;19910;-71
2024/03/10 06:35:38;;;;;;;;;;;;;;;10.04;51.85;97667.69;4143990;28;20354;-71
2024/03/10 06:37:39;;;;;;;;;;;;;;;10.17;51.85;97658.91;4144352;28;19953;-70
2024/03/10 06:39:39;;;;;;;;;;;;;;;10.03;52.03;97655.38;4161261;28;19909;-72
2024/03/10 06:41:39;;;;;;;;;;;;;;;9.84;52.45;97653.22;4137119;28;20061;-70
2024/03/10 06:43:40;;;;;;;;;;;;;;;9.88;52.72;97668.84;4133082;28;19917;-71
2024/03/10 06:45:42;;;;;;;;;;;;;;;9.89;52.69;97665.16;4132483;28;19981;-71
2024/03/10 06:47:42;;;;;;;;;;;;;;;9.94;52.61;97671.56;4132239;28;19996;-70
2024/03/10 06:49:43;;;;;;;;;;;;;;;9.95;52.49;97653.69;4132390;28;19953;-71
2024/03/10 06:51:44;;;;;;;;;;;;;;;9.94;52.55;97660.88;4131656;28;19909;-71
2024/03/10 06:53:45;;;;;;;;;;;;;;;9.90;52.51;97662.28;4131262;28;20009;-71
2024/03/10 06:55:45;;;;;;;;;;;;;;;9.99;52.36;97657.63;4131752;28;19910;-71
2024/03/10 06:57:46;;;;;;;;;;;;;;;9.86;52.55;97650.38;4131576;28;19910;-71
2024/03/10 06:59:46;;;;;;;;;;;;;;;9.81;52.55;97653.66;4131855;28;19909;-71
2024/03/10 07:01:47;;;;;;;;;;;;;;;9.88;52.40;97666.19;4131871;28;19917;-71
2024/03/10 07:03:48;;;;;;;;;;;;;;;9.97;52.02;97652.47;4131625;28;20373;-70
2024/03/10 07:05:48;;;;;;;;;;;;;;;9.94;52.16;97652.88;4146980;28;19913;-72
2024/03/10 07:07:50;;;;;;;;;;;;;;;9.79;52.76;97646.84;4130997;28;20656;-70
2024/03/10 07:09:50;;;;;;;;;;;;;;;9.80;52.71;97641.31;4131450;28;19914;-70
2024/03/10 07:11:54;;;;;;;;;;;;;;;9.89;52.39;97622.47;4146424;28;19917;-70
2024/03/10 07:13:54;;;;;;;;;;;;;;;9.98;52.29;97624.75;4130037;28;19910;-70
2024/03/10 07:15:54;;;;;;;;;;;;;;;9.95;52.11;97635.00;4130782;28;20090;-71
2024/03/10 07:17:55;;;;;;;;;;;;;;;9.69;52.79;97639.22;4131366;28;19909;-70
2024/03/10 07:19:56;;;;;;;;;;;;;;;9.94;52.31;97636.88;4131076;28;19910;-71
2024/03/10 07:21:56;;;;;;;;;;;;;;;10.01;52.24;97622.72;4131067;28;19932;-71
2024/03/10 07:23:57;;;;;;;;;;;;;;;10.07;51.98;97629.91;4145696;28;19914;-70
2024/03/10 07:25:57;;;;;;;;;;;;;;;9.87;52.49;97629.84;4131166;28;20004;-70
2024/03/10 07:27:57;;;;;;;;;;;;;;;9.89;52.86;97633.13;4130940;28;19917;-70
2024/03/10 07:29:58;;;;;;;;;;;;;;;9.81;53.14;97621.63;4131332;28;20386;-71
2024/03/10 07:31:58;;;;;;;;;;;;;;;10.06;52.54;97621.09;4129989;28;20431;-70
2024/03/10 07:33:59;;;;;;;;;;;;;;;10.11;51.97;97626.63;4130626;28;19913;-72
2024/03/10 07:35:59;;;;;;;;;;;;;;;10.26;51.42;97629.13;4130799;28;19935;-70
2024/03/10 07:38:00;;;;;;;;;;;;;;;10.25;51.76;97627.50;4129878;28;19913;-70
2024/03/10 07:40:01;;;;;;;;;;;;;;;10.38;51.39;97616.06;4131222;28;19913;-70
2024/03/10 07:42:01;;;;;;;;;;;;;;;10.41;51.36;97618.31;4131212;28;19917;-70
2024/03/10 07:44:02;;;;;;;;;;;;;;;10.41;51.09;97620.97;4145373;28;20464;-70
2024/03/10 07:46:05;;;;;;;;;;;;;;;10.33;51.33;97623.00;4130906;28;19959;-71
2024/03/10 07:48:05;;;;;;;;;;;;;;;10.15;51.55;97627.88;4130757;28;19910;-70
2024/03/10 07:50:06;;;;;;;;;;;;;;;10.30;51.53;97621.53;4130677;28;19916;-70
2024/03/10 07:52:07;;;;;;;;;;;;;;;10.21;51.91;97615.59;4130980;28;19910;-70
2024/03/10 07:54:07;;;;;;;;;;;;;;;10.01;52.38;97609.38;4145687;28;19997;-70
2024/03/10 07:56:08;;;;;;;;;;;;;;;10.07;52.58;97588.03;4130711;28;19910;-70
2024/03/10 07:58:09;;;;;;;;;;;;;;;9.97;52.85;97590.25;4130856;28;19916;-70
2024/03/10 08:00:16;;;;;;;;;;;;;;;9.97;53.17;97593.75;4145908;28;19920;-71
2024/03/10 08:02:16;;;;;;;;;;;;;;;9.91;53.00;97585.75;4130560;28;19910;-70
2024/03/10 08:04:17;;;;;;;;;;;;;;;10.07;52.92;97582.69;4130258;28;20543;-71
2024/03/10 08:06:17;;;;;;;;;;;;;;;10.16;52.62;97575.31;4145422;28;19935;-72
2024/03/10 08:08:18;;;;;;;;;;;;;;;10.30;52.01;97570.81;4129259;28;19918;-69
2024/03/10 08:10:18;;;;;;;;;;;;;;;10.24;52.07;97587.66;4130735;28;20007;-71
2024/03/10 08:12:19;;;;;;;;;;;;;;;10.41;52.02;97599.63;4145232;28;19913;-71
2024/03/10 08:14:21;;;;;;;;;;;;;;;10.47;51.63;97611.34;4130161;28;19910;-69
2024/03/10 08:16:21;;;;;;;;;;;;;;;10.54;51.61;97625.50;4130406;28;20377;-70
2024/03/10 08:18:21;;;;;;;;;;;;;;;10.82;50.87;97629.03;4131041;28;19913;-70
2024/03/10 08:20:24;;;;;;;;;;;;;;;10.69;50.42;97619.19;4130255;28;19968;-71
2024/03/10 08:22:25;;;;;;;;;;;;;;;10.73;50.50;97623.91;4130703;28;19936;-71
2024/03/10 08:24:26;;;;;;;;;;;;;;;10.68;50.17;97615.66;4130020;28;19909;-71
2024/03/10 08:26:27;;;;;;;;;;;;;;;10.95;49.08;97621.03;4130071;28;19916;-71
2024/03/10 08:28:27;;;;;;;;;;;;;;;11.26;48.78;97618.72;4130511;28;19928;-71
2024/03/10 08:30:28;;;;;;;;;;;;;;;11.44;48.09;97613.53;4130752;28;19909;-71
2024/03/10 08:32:29;;;;;;;;;;;;;;;11.30;48.20;97617.25;4130527;28;19965;-71
2024/03/10 08:34:30;;;;;;;;;;;;;;;11.43;47.63;97619.13;4129756;28;19913;-71
2024/03/10 08:36:31;;;;;;;;;;;;;;;11.39;47.61;97616.84;4130271;28;20396;-71
2024/03/10 08:38:34;;;;;;;;;;;;;;;11.50;47.25;97611.88;4129638;28;19910;-70
2024/03/10 08:40:35;;;;;;;;;;;;;;;11.65;47.18;97627.69;4130937;28;19910;-71
2024/03/10 08:42:38;;;;;;;;;;;;;;;12.10;46.23;97632.25;4131201;28;20349;-71
2024/03/10 08:44:38;;;;;;;;;;;;;;;11.99;46.01;97620.38;4148815;28;19921;-71
2024/03/10 08:46:39;;;;;;;;;;;;;;;11.97;46.29;97615.25;4134015;28;19909;-71
2024/03/10 08:48:40;;;;;;;;;;;;;;;11.97;46.35;97617.03;4138849;28;19914;-72
2024/03/10 08:50:40;;;;;;;;;;;;;;;11.97;46.08;97620.59;4152804;28;19906;-72
2024/03/10 08:52:41;;;;;;;;;;;;;;;12.07;46.08;97619.31;4141508;28;19923;-69
2024/03/10 08:54:42;;;;;;;;;;;;;;;11.85;46.44;97614.22;4148898;28;19940;-70
2024/03/10 08:56:42;;;;;;;;;;;;;;;11.71;46.68;97608.91;4133458;28;20016;-69
2024/03/10 08:58:43;;;;;;;;;;;;;;;11.70;46.57;97595.75;4133766;28;20362;-69
2024/03/10 09:00:43;;;;;;;;;;;;;;;11.86;46.43;97584.56;4133998;28;19916;-69
2024/03/10 09:02:44;;;;;;;;;;;;;;;11.66;46.42;97584.66;4130638;28;20435;-69
2024/03/10 09:04:44;;;;;;;;;;;;;;;11.86;46.39;97583.75;4132402;28;19983;-71
2024/03/10 09:06:44;;;;;;;;;;;;;;;11.83;46.75;97582.31;4132819;28;20005;-71
2024/03/10 09:08:46;;;;;;;;;;;;;;;11.96;46.18;97577.91;4148365;28;19913;-72
2024/03/10 09:10:46;;;;;;;;;;;;;;;12.00;46.21;97577.31;4133657;28;20294;-70
2024/03/10 09:12:46;;;;;;;;;;;;;;;11.99;45.85;97562.31;4133313;28;19910;-71
2024/03/10 09:14:47;;;;;;;;;;;;;;;11.97;45.98;97559.00;4133354;28;19910;-70
2024/03/10 09:16:50;;;;;;;;;;;;;;;12.08;45.95;97567.41;4133183;28;19913;-71
2024/03/10 09:18:51;;;;;;;;;;;;;;;12.14;45.34;97578.06;4133364;28;20370;-70
2024/03/10 09:20:51;;;;;;;;;;;;;;;12.01;45.80;97578.94;4133870;28;20512;-71
2024/03/10 09:22:54;;;;;;;;;;;;;;;12.09;45.26;97577.88;4133478;28;19914;-71
2024/03/10 09:24:54;;;;;;;;;;;;;;;12.13;45.25;97573.75;4132235;28;19913;-71
2024/03/10 09:26:56;;;;;;;;;;;;;;;12.22;44.81;97576.19;4133086;28;19953;-71
2024/03/10 09:28:57;;;;;;;;;;;;;;;12.43;44.51;97565.09;4132985;28;19917;-70
2024/03/10 09:30:58;;;;;;;;;;;;;;;12.56;44.58;97560.69;4148253;28;20349;-71
2024/03/10 09:32:58;;;;;;;;;;;;;;;12.72;44.21;97559.31;4132015;28;19910;-71
2024/03/10 09:34:59;;;;;;;;;;;;;;;12.37;44.69;97546.41;4132783;28;19910;-69
2024/03/10 09:36:59;;;;;;;;;;;;;;;12.17;45.10;97561.56;4132875;28;19922;-69
2024/03/10 09:39:00;;;;;;;;;;;;;;;12.68;44.40;97571.50;4132965;28;19921;-70
2024/03/10 09:41:00;;;;;;;;;;;;;;;12.70;44.26;97580.16;4132849;28;20453;-71
2024/03/10 09:43:05;;;;;;;;;;;;;;;12.76;43.66;97590.00;4133125;28;20298;-70
2024/03/10 09:45:15;;;;;;;;;;;;;;;13.21;43.14;97584.44;4132071;28;19921;-70
2024/03/10 09:47:18;;;;;;;;;;;;;;;13.08;43.29;97596.09;4132599;28;19913;-70
2024/03/10 09:49:19;;;;;;;;;;;;;;;13.20;43.05;97604.25;4131734;28;19957;-71
2024/03/10 09:51:20;;;;;;;;;;;;;;;12.92;43.44;97613.59;4132848;28;19940;-71
2024/03/10 09:53:20;;;;;;;;;;;;;;;13.10;43.52;97601.25;4132829;28;19909;-71
2024/03/10 09:55:21;;;;;;;;;;;;;;;13.36;43.07;97612.75;4131433;28;19910;-70
2024/03/10 09:57:21;;;;;;;;;;;;;;;13.05;43.39;97611.81;4132552;28;20298;-70
2024/03/10 09:59:30;;;;;;;;;;;;;;;12.94;43.30;97622.22;4132902;28;19909;-71
2024/03/10 10:01:33;;;;;;;;;;;;;;;13.15;43.33;97622.84;4148167;28;19913;-70
2024/03/10 10:03:34;;;;;;;;;;;;;;;13.25;43.20;97607.09;4132550;28;19909;-71
2024/03/10 10:05:46;;;;;;;;;;;;;;;13.39;43.30;97607.00;4133042;28;19913;-72
2024/03/10 10:07:47;;;;;;;;;;;;;;;12.97;43.72;97593.31;4133045;28;19910;-71
2024/03/10 10:09:57;;;;;;;;;;;;;;;12.90;43.85;97594.22;4133758;28;19920;-70
2024/03/10 10:11:57;;;;;;;;;;;;;;;12.98;44.17;97579.72;4132904;28;20052;-70
2024/03/10 10:14:11;;;;;;;;;;;;;;;13.04;43.94;97577.97;4135784;28;20366;-70
2024/03/10 10:16:12;;;;;;;;;;;;;;;12.77;44.51;97572.88;4147674;28;20319;-70
2024/03/10 10:18:15;;;;;;;;;;;;;;;12.64;44.81;97573.81;4135138;28;19939;-70
2024/03/10 10:20:17;;;;;;;;;;;;;;;12.71;44.74;97563.84;4138711;28;19990;-70
2024/03/10 10:22:18;;;;;;;;;;;;;;;12.62;44.84;97570.50;4153641;28;19917;-71
2024/03/10 10:24:19;;;;;;;;;;;;;;;12.69;44.84;97573.16;4131936;28;19932;-70
2024/03/10 10:26:20;;;;;;;;;;;;;;;13.13;44.26;97586.56;4132726;28;19910;-70
2024/03/10 10:28:20;;;;;;;;;;;;;;;12.98;44.32;97589.59;4132694;28;19967;-70
2024/03/10 10:30:27;;;;;;;;;;;;;;;13.14;44.04;97577.50;4132396;28;20388;-70
2024/03/10 10:32:28;;;;;;;;;;;;;;;12.98;44.32;97560.09;4132543;28;20001;-70
2024/03/10 10:34:29;;;;;;;;;;;;;;;12.91;44.54;97555.63;4147128;28;19975;-70
2024/03/10 10:36:33;;;;;;;;;;;;;;;13.07;44.29;97546.22;4132286;28;19921;-70
2024/03/10 10:38:37;;;;;;;;;;;;;;;13.14;44.40;97540.75;4132098;28;19910;-70
2024/03/10 10:40:41;;;;;;;;;;;;;;;13.34;43.92;97545.06;4131598;28;19910;-71
2024/03/10 10:42:42;;;;;;;;;;;;;;;13.24;43.92;97551.78;4147565;28;20387;-70
2024/03/10 10:44:42;;;;;;;;;;;;;;;13.15;44.19;97561.16;4131531;28;19945;-70
2024/03/10 10:46:43;;;;;;;;;;;;;;;13.34;43.88;97572.75;4147241;28;20075;-70
2024/03/10 10:48:47;;;;;;;;;;;;;;;13.14;43.85;97564.88;4131861;28;20370;-70
2024/03/10 10:50:51;;;;;;;;;;;;;;;13.36;43.27;97580.56;4132182;28;19909;-71
2024/03/10 10:52:51;;;;;;;;;;;;;;;13.59;42.93;97565.69;4147046;28;19909;-70
2024/03/10 10:54:51;;;;;;;;;;;;;;;13.61;42.91;97560.91;4131564;28;19972;-70